Time;durP1;ratioP1;P1;durP2;ratioP2;P2;SDS_P1;SDS_P2;PMS_P1;PMS_P2;Temp;Humidity;BMP_temperature;BMP_pressure;BME280_temperature;BME280_humidity;BME280_pressure;Samples;Min_cycle;Max_cycle;Signal;HPM_P1;HPM_P2
2021/12/22 00:02:18;;;;;;;488.20;205.35;;;-0.20;99.90;;;;;;5115159;28;20023;-50
2021/12/22 00:04:46;;;;;;;490.48;206.20;;;-0.30;99.90;;;;;;5115050;28;20049;-50
2021/12/22 00:07:13;;;;;;;485.30;203.48;;;-0.30;99.90;;;;;;5115075;28;20404;-50
2021/12/22 00:09:41;;;;;;;491.77;199.23;;;-0.30;99.90;;;;;;5114896;28;20020;-50
2021/12/22 00:12:08;;;;;;;516.75;220.20;;;-0.30;99.90;;;;;;5109023;28;20100;-50
2021/12/22 00:14:34;;;;;;;549.45;238.70;;;-0.30;99.90;;;;;;5094641;28;20034;-50
2021/12/22 00:17:00;;;;;;;574.90;247.75;;;-0.20;99.90;;;;;;5097616;28;20104;-50
2021/12/22 00:19:26;;;;;;;566.92;246.35;;;-0.10;99.90;;;;;;5114867;28;20397;-50
2021/12/22 00:21:52;;;;;;;550.78;235.45;;;-0.10;99.90;;;;;;5114973;28;20031;-50
2021/12/22 00:24:18;;;;;;;536.70;227.00;;;-0.10;99.90;;;;;;5114957;28;20031;-50
2021/12/22 00:26:44;;;;;;;517.55;216.98;;;-0.10;99.90;;;;;;5114889;28;20155;-50
2021/12/22 00:29:12;;;;;;;478.35;201.52;;;0.00;99.90;;;;;;5114798;28;20458;-50
2021/12/22 00:31:46;;;;;;;490.35;212.25;;;-0.10;99.90;;;;;;5115189;28;20082;-50
2021/12/22 00:34:16;;;;;;;506.60;210.60;;;-0.10;99.90;;;;;;5119083;28;20848;-50
2021/12/22 00:36:44;;;;;;;494.00;209.10;;;-0.10;99.90;;;;;;5119028;28;20020;-50
2021/12/22 00:39:11;;;;;;;525.03;221.82;;;-0.10;99.90;;;;;;5118921;28;20618;-50
2021/12/22 00:41:37;;;;;;;527.72;224.77;;;-0.20;99.90;;;;;;5119174;28;20027;-50
2021/12/22 00:44:03;;;;;;;522.88;227.50;;;-0.10;99.90;;;;;;5118899;28;20028;-50
2021/12/22 00:46:29;;;;;;;525.15;223.90;;;0.00;99.90;;;;;;5118759;28;20024;-50
2021/12/22 00:48:55;;;;;;;489.02;206.55;;;0.10;99.90;;;;;;5118893;28;20035;-50
2021/12/22 00:51:21;;;;;;;519.35;221.35;;;0.00;99.90;;;;;;5118723;28;20048;-50
2021/12/22 00:53:47;;;;;;;486.15;207.60;;;-0.20;99.90;;;;;;5118756;28;20093;-50
2021/12/22 00:56:14;;;;;;;459.17;185.93;;;-0.20;99.90;;;;;;5118612;28;20039;-50
2021/12/22 00:58:40;;;;;;;437.50;187.38;;;-0.10;99.90;;;;;;5118524;28;20031;-50
2021/12/22 01:01:07;;;;;;;460.10;192.98;;;-0.10;99.90;;;;;;5118731;28;20111;-50
2021/12/22 01:03:35;;;;;;;481.25;203.75;;;0.00;99.90;;;;;;5118678;28;20023;-50
2021/12/22 01:06:04;;;;;;;511.60;220.13;;;-0.10;99.90;;;;;;5118407;28;20059;-50
2021/12/22 01:08:30;;;;;;;514.13;218.68;;;-0.20;99.90;;;;;;5118622;28;20024;-50
2021/12/22 01:10:57;;;;;;;521.45;219.25;;;-0.20;99.90;;;;;;5118598;28;20089;-50
2021/12/22 01:13:22;;;;;;;494.45;207.02;;;-0.20;99.90;;;;;;5101613;28;20063;-50
2021/12/22 01:15:48;;;;;;;506.92;217.45;;;0.00;99.90;;;;;;5098181;28;20032;-50
2021/12/22 01:18:26;;;;;;;511.50;221.80;;;-0.10;99.90;;;;;;5111279;28;20016;-50
2021/12/22 01:21:02;;;;;;;530.20;229.93;;;0.00;99.90;;;;;;5118235;28;20076;-50
2021/12/22 01:23:35;;;;;;;512.97;216.80;;;0.10;99.90;;;;;;5118367;28;20035;-50
2021/12/22 01:26:04;;;;;;;519.65;222.68;;;0.10;99.90;;;;;;5118176;28;20116;-50
2021/12/22 01:28:30;;;;;;;588.88;247.93;;;0.10;99.90;;;;;;5118095;28;20110;-50
2021/12/22 01:31:01;;;;;;;793.92;330.45;;;0.20;99.90;;;;;;5118098;28;20035;-50
2021/12/22 01:33:28;;;;;;;804.42;335.40;;;0.20;99.90;;;;;;5117871;28;20035;-50
2021/12/22 01:35:54;;;;;;;750.90;319.38;;;0.20;99.90;;;;;;5117925;28;20030;-50
2021/12/22 01:38:20;;;;;;;851.65;354.15;;;0.10;99.90;;;;;;5118053;28;20070;-50
2021/12/22 01:40:46;;;;;;;623.80;275.02;;;0.20;99.90;;;;;;5117531;28;20023;-50
2021/12/22 01:43:16;;;;;;;640.13;279.38;;;0.30;99.90;;;;;;5117375;28;20055;-50
2021/12/22 01:46:31;;;;;;;674.92;289.67;;;0.30;99.90;;;;;;5117805;28;20034;-50
2021/12/22 01:49:11;;;;;;;738.03;310.95;;;0.20;99.90;;;;;;5115127;28;20114;-50
2021/12/22 01:52:01;;;;;;;708.58;298.25;;;0.30;99.90;;;;;;5117699;28;20377;-50
2021/12/22 01:54:27;;;;;;;639.80;273.35;;;0.30;99.90;;;;;;5117368;28;20435;-50
2021/12/22 01:56:59;;;;;;;620.88;262.92;;;0.30;99.90;;;;;;5117481;28;20382;-50
2021/12/22 01:59:25;;;;;;;594.60;244.75;;;0.40;99.90;;;;;;5117376;28;20055;-50
2021/12/22 02:01:56;;;;;;;570.38;241.15;;;0.30;99.90;;;;;;5099046;28;20032;-50
2021/12/22 02:04:22;;;;;;;553.63;233.93;;;0.30;99.90;;;;;;5117391;28;20034;-50
2021/12/22 02:06:48;;;;;;;506.25;213.70;;;0.20;99.90;;;;;;5117419;28;20453;-50
2021/12/22 02:09:33;;;;;;;556.05;240.35;;;0.10;99.90;;;;;;5117229;28;20024;-50
2021/12/22 02:11:59;;;;;;;540.90;231.00;;;0.00;99.90;;;;;;5112024;28;20435;-50
2021/12/22 02:14:26;;;;;;;513.80;219.02;;;0.10;99.90;;;;;;5096815;28;20129;-50
2021/12/22 02:16:52;;;;;;;509.42;220.73;;;0.10;99.90;;;;;;5098487;28;20024;-50
2021/12/22 02:19:17;;;;;;;492.52;212.77;;;0.10;99.90;;;;;;5117176;28;20024;-50
2021/12/22 02:21:50;;;;;;;489.98;209.68;;;0.20;99.90;;;;;;5117027;28;20059;-50
2021/12/22 02:24:16;;;;;;;471.60;200.00;;;0.20;99.90;;;;;;5116954;28;20107;-50
2021/12/22 02:26:56;;;;;;;458.10;192.85;;;0.30;99.90;;;;;;5117037;28;20066;-50
2021/12/22 02:29:36;;;;;;;457.40;193.07;;;0.30;99.90;;;;;;5117029;28;20078;-50
2021/12/22 02:32:19;;;;;;;392.23;168.40;;;0.40;99.90;;;;;;5116690;28;20070;-50
2021/12/22 02:34:47;;;;;;;357.30;154.27;;;0.30;99.90;;;;;;5116782;28;20373;-50
2021/12/22 02:37:17;;;;;;;359.02;157.27;;;0.30;99.90;;;;;;5116670;28;20058;-50
2021/12/22 02:39:51;;;;;;;356.63;157.50;;;0.30;99.90;;;;;;5116647;28;20023;-50
2021/12/22 02:42:20;;;;;;;361.67;158.05;;;0.30;99.90;;;;;;5116519;28;20405;-50
2021/12/22 02:44:46;;;;;;;358.05;157.30;;;0.30;99.90;;;;;;5116436;28;20028;-50
2021/12/22 02:47:19;;;;;;;373.92;159.27;;;0.30;99.90;;;;;;5116503;28;20031;-50
2021/12/22 02:49:45;;;;;;;359.95;155.38;;;0.20;99.90;;;;;;5116598;28;20020;-50
2021/12/22 02:52:11;;;;;;;352.00;150.93;;;0.20;99.90;;;;;;5116204;28;20495;-51
2021/12/22 02:54:45;;;;;;;343.20;150.43;;;0.20;99.90;;;;;;5115753;28;20377;-50
2021/12/22 02:57:31;;;;;;;335.17;149.63;;;0.20;99.90;;;;;;5116657;28;20046;-50
2021/12/22 03:05:21;;;;;;;345.23;150.05;;;0.20;99.90;;;;;;5116069;28;20019;-50
2021/12/22 03:07:48;;;;;;;362.85;155.30;;;0.30;99.90;;;;;;5116269;28;20408;-50
2021/12/22 03:10:17;;;;;;;336.83;145.40;;;0.20;99.90;;;;;;5116135;28;20034;-50
2021/12/22 03:12:52;;;;;;;340.95;148.30;;;0.20;99.90;;;;;;5105049;28;20027;-50
2021/12/22 03:15:19;;;;;;;355.98;149.30;;;0.30;99.90;;;;;;5095700;28;20069;-50
2021/12/22 03:17:48;;;;;;;360.05;151.23;;;0.20;99.90;;;;;;5104883;28;20045;-50
2021/12/22 03:20:15;;;;;;;348.27;148.05;;;0.20;99.90;;;;;;5115693;28;20460;-50
2021/12/22 03:22:44;;;;;;;352.10;146.60;;;0.20;99.90;;;;;;5115701;28;20031;-50
2021/12/22 03:25:16;;;;;;;340.88;145.27;;;0.10;99.90;;;;;;5115962;28;20350;-50
2021/12/22 03:27:51;;;;;;;322.38;141.05;;;0.20;99.90;;;;;;5115685;28;20111;-50
2021/12/22 03:30:21;;;;;;;328.92;143.98;;;0.20;99.90;;;;;;5115602;28;20036;-50
2021/12/22 03:32:47;;;;;;;306.80;135.68;;;0.20;99.90;;;;;;5115765;28;20036;-50
2021/12/22 03:35:18;;;;;;;307.77;129.35;;;0.20;99.90;;;;;;5115424;28;20160;-50
2021/12/22 03:37:45;;;;;;;;;;;0.20;99.90;;;;;;5116151;28;20030;-50
2021/12/22 03:40:11;;;;;;;345.80;142.93;;;0.20;99.90;;;;;;5115507;28;19907;-50
2021/12/22 03:42:37;;;;;;;361.70;149.73;;;0.10;99.90;;;;;;5115338;28;20028;-50
2021/12/22 03:45:04;;;;;;;384.75;160.82;;;0.30;99.90;;;;;;5115551;28;20128;-50
2021/12/22 03:47:30;;;;;;;364.05;158.15;;;0.30;99.90;;;;;;5115455;28;20492;-50
2021/12/22 03:49:56;;;;;;;360.45;151.52;;;0.30;99.90;;;;;;5115242;28;20019;-51
2021/12/22 03:52:22;;;;;;;356.13;150.80;;;0.30;99.90;;;;;;5115346;28;20039;-50
2021/12/22 03:54:48;;;;;;;345.08;147.45;;;0.20;99.90;;;;;;5115348;28;20080;-50
2021/12/22 03:57:14;;;;;;;343.42;148.65;;;0.20;99.90;;;;;;5115193;28;20028;-50
2021/12/22 03:59:40;;;;;;;340.73;147.80;;;0.30;99.90;;;;;;5115390;28;20045;-50
2021/12/22 04:02:07;;;;;;;340.73;145.13;;;0.40;99.90;;;;;;5115189;28;20024;-50
2021/12/22 04:04:32;;;;;;;324.45;141.52;;;0.40;99.90;;;;;;5114974;28;20504;-50
2021/12/22 04:06:58;;;;;;;330.52;141.88;;;0.30;99.90;;;;;;5115235;28;20034;-50
2021/12/22 04:09:27;;;;;;;304.05;135.10;;;0.30;99.90;;;;;;5115045;28;20487;-50
2021/12/22 04:11:54;;;;;;;298.77;130.60;;;0.30;99.90;;;;;;5110785;28;20461;-50
2021/12/22 04:14:20;;;;;;;307.02;132.10;;;0.20;99.90;;;;;;5094755;28;20032;-50
2021/12/22 04:16:46;;;;;;;298.08;128.63;;;0.20;99.90;;;;;;5095574;28;20485;-50
2021/12/22 04:19:12;;;;;;;276.35;121.72;;;0.20;99.90;;;;;;5115021;28;20023;-50
2021/12/22 04:21:38;;;;;;;282.42;124.57;;;0.30;99.90;;;;;;5114979;28;20377;-50
2021/12/22 04:24:06;;;;;;;281.13;124.45;;;0.40;99.90;;;;;;5115061;28;20114;-50
2021/12/22 04:26:33;;;;;;;323.20;144.07;;;0.40;99.90;;;;;;5115118;28;20048;-50
2021/12/22 04:28:59;;;;;;;301.52;134.18;;;0.50;99.90;;;;;;5115212;28;20040;-50
2021/12/22 04:31:25;;;;;;;301.85;135.00;;;0.40;99.90;;;;;;5114703;28;20512;-50
2021/12/22 04:33:51;;;;;;;289.48;131.57;;;0.50;99.90;;;;;;5114866;28;20023;-50
2021/12/22 04:36:18;;;;;;;287.98;130.73;;;0.50;99.90;;;;;;5113894;28;20034;-50
2021/12/22 04:38:44;;;;;;;283.63;129.50;;;0.60;99.90;;;;;;5114627;28;20107;-50
2021/12/22 04:41:10;;;;;;;293.88;129.25;;;0.60;99.90;;;;;;5114813;28;20460;-50
2021/12/22 04:43:36;;;;;;;296.08;129.80;;;0.50;99.90;;;;;;5114700;28;20036;-50
2021/12/22 04:46:02;;;;;;;287.02;129.20;;;0.50;99.90;;;;;;5114486;28;20107;-50
2021/12/22 04:48:28;;;;;;;282.13;128.68;;;0.50;99.90;;;;;;5114732;28;20042;-50
2021/12/22 04:50:53;;;;;;;276.30;125.10;;;0.50;99.90;;;;;;5114764;28;20023;-50
2021/12/22 04:53:28;;;;;;;293.67;130.32;;;0.50;99.90;;;;;;5114528;28;20044;-50
2021/12/22 04:55:54;;;;;;;292.20;128.15;;;0.50;99.90;;;;;;5114557;28;20030;-50
2021/12/22 04:58:20;;;;;;;287.27;127.82;;;0.50;99.90;;;;;;5114609;28;20028;-50
2021/12/22 05:00:46;;;;;;;279.92;123.22;;;0.50;99.90;;;;;;5096111;28;20058;-50
2021/12/22 05:03:12;;;;;;;263.02;119.50;;;0.40;99.90;;;;;;5114580;28;20389;-50
2021/12/22 05:05:38;;;;;;;268.90;123.38;;;0.40;99.90;;;;;;5114817;28;20040;-50
2021/12/22 05:08:05;;;;;;;263.60;118.43;;;0.20;99.90;;;;;;5114432;28;20024;-50
2021/12/22 05:10:31;;;;;;;259.17;117.95;;;0.30;99.90;;;;;;5114460;28;20031;-50
2021/12/22 05:12:57;;;;;;;268.33;118.85;;;0.40;99.90;;;;;;5101351;28;20481;-50
2021/12/22 05:15:25;;;;;;;254.50;114.15;;;0.40;99.90;;;;;;5094073;28;20105;-50
2021/12/22 05:20:21;;;;;;;245.88;111.45;;;0.40;99.90;;;;;;5118151;28;20032;-50
2021/12/22 05:22:48;;;;;;;234.55;105.28;;;0.50;99.90;;;;;;5118170;28;20055;-50
2021/12/22 05:25:14;;;;;;;240.70;108.15;;;0.50;99.90;;;;;;5118233;28;20061;-50
2021/12/22 05:27:41;;;;;;;240.10;109.18;;;0.50;99.90;;;;;;5117980;28;20081;-50
2021/12/22 05:30:09;;;;;;;249.07;111.75;;;0.50;99.90;;;;;;5118068;28;20028;-50
2021/12/22 05:32:36;;;;;;;270.80;120.15;;;0.40;99.90;;;;;;5118145;28;20055;-50
2021/12/22 05:35:06;;;;;;;302.52;132.82;;;0.50;99.90;;;;;;5117897;28;20030;-50
2021/12/22 05:37:32;;;;;;;337.25;142.13;;;0.50;99.90;;;;;;5117965;28;20098;-50
2021/12/22 05:39:58;;;;;;;433.90;174.90;;;0.60;99.90;;;;;;5117816;28;20049;-50
2021/12/22 05:42:25;;;;;;;452.05;180.75;;;0.60;99.90;;;;;;5117507;28;20024;-50
2021/12/22 05:44:51;;;;;;;473.83;190.25;;;0.60;99.90;;;;;;5117713;28;20103;-50
2021/12/22 05:47:17;;;;;;;599.03;246.82;;;0.70;99.90;;;;;;5117676;28;20051;-50
2021/12/22 05:49:44;;;;;;;490.63;193.13;;;0.70;99.90;;;;;;5117637;28;20454;-50
2021/12/22 05:52:11;;;;;;;326.77;141.48;;;0.70;99.90;;;;;;5117284;28;20028;-50
2021/12/22 05:54:37;;;;;;;303.73;132.77;;;0.80;99.90;;;;;;5117621;28;20061;-50
2021/12/22 05:57:04;;;;;;;307.55;135.43;;;0.80;99.90;;;;;;5117371;28;20031;-50
2021/12/22 05:59:29;;;;;;;309.58;137.63;;;0.90;99.90;;;;;;5117417;28;20595;-50
2021/12/22 06:01:56;;;;;;;337.13;144.52;;;0.70;99.90;;;;;;5117570;28;20097;-50
2021/12/22 06:04:22;;;;;;;314.05;142.40;;;0.80;99.90;;;;;;5117292;28;20105;-50
2021/12/22 06:06:48;;;;;;;326.45;139.88;;;0.80;99.90;;;;;;5117335;28;20035;-50
2021/12/22 06:09:13;;;;;;;343.10;149.70;;;0.80;99.90;;;;;;5117234;28;20020;-50
2021/12/22 06:11:39;;;;;;;358.25;152.13;;;0.70;99.90;;;;;;5115013;28;20083;-50
2021/12/22 06:14:05;;;;;;;380.95;163.77;;;0.70;99.90;;;;;;5096912;28;20078;-50
2021/12/22 06:16:32;;;;;;;396.13;165.82;;;0.80;99.90;;;;;;5096785;28;20028;-50
2021/12/22 06:19:02;;;;;;;394.98;168.52;;;0.70;99.90;;;;;;5116205;28;20106;-50
2021/12/22 06:21:29;;;;;;;399.27;176.98;;;0.60;99.90;;;;;;5117540;28;20042;-50
2021/12/22 06:23:55;;;;;;;407.48;177.38;;;0.50;99.90;;;;;;5085777;28;20032;-50
2021/12/22 06:26:21;;;;;;;419.42;187.30;;;0.50;99.90;;;;;;5069427;28;20093;-50
2021/12/22 06:28:47;;;;;;;459.60;195.30;;;0.50;99.90;;;;;;5088261;28;20043;-50
2021/12/22 06:31:15;;;;;;;448.40;190.05;;;0.40;99.90;;;;;;5082943;28;20028;-50
2021/12/22 06:33:42;;;;;;;468.38;190.25;;;0.40;99.90;;;;;;5074548;28;20038;-50
2021/12/22 06:36:44;;;;;;;509.92;220.00;;;0.40;99.90;;;;;;5097265;28;20017;-50
2021/12/22 06:42:27;;;;;;;422.98;184.70;;;0.50;99.90;;;;;;5097856;28;20066;-50
2021/12/22 06:44:53;;;;;;;423.60;185.20;;;0.60;99.90;;;;;;5096253;28;20458;-50
2021/12/22 06:47:22;;;;;;;413.55;180.25;;;0.60;99.90;;;;;;5094026;28;20024;-50
2021/12/22 06:49:48;;;;;;;418.85;188.13;;;0.70;99.90;;;;;;5075712;28;20028;-50
2021/12/22 06:52:14;;;;;;;444.90;197.13;;;0.80;99.90;;;;;;5087959;28;20650;-50
2021/12/22 06:54:40;;;;;;;457.27;201.82;;;0.80;99.90;;;;;;5090245;28;20032;-50
2021/12/22 06:57:06;;;;;;;460.20;208.50;;;0.80;99.90;;;;;;5087940;28;20049;-50
2021/12/22 06:59:32;;;;;;;453.88;201.95;;;0.80;99.90;;;;;;5083798;28;20020;-50
2021/12/22 07:01:58;;;;;;;444.38;194.70;;;0.90;99.90;;;;;;5096155;28;20054;-50
2021/12/22 07:04:24;;;;;;;433.20;194.32;;;0.90;99.90;;;;;;5084335;28;20070;-50
2021/12/22 07:06:51;;;;;;;442.77;196.10;;;1.00;99.90;;;;;;5074794;28;20551;-50
2021/12/22 07:09:17;;;;;;;402.52;173.35;;;1.10;99.90;;;;;;5088587;28;20028;-50
2021/12/22 07:11:44;;;;;;;453.20;203.65;;;1.10;99.90;;;;;;5091278;28;20024;-51
2021/12/22 07:14:10;;;;;;;445.95;190.95;;;1.20;99.90;;;;;;5089309;28;20491;-50
2021/12/22 07:16:38;;;;;;;452.55;194.77;;;1.20;99.90;;;;;;5079918;28;20034;-50
2021/12/22 07:19:04;;;;;;;447.23;184.90;;;1.20;99.90;;;;;;5084134;28;20024;-50
2021/12/22 07:21:33;;;;;;;392.92;169.32;;;1.30;99.90;;;;;;5090584;28;20035;-50
2021/12/22 07:23:59;;;;;;;427.83;179.90;;;1.20;99.90;;;;;;5094004;28;20028;-50
2021/12/22 07:26:25;;;;;;;549.22;226.32;;;1.20;99.90;;;;;;5095006;28;20016;-50
2021/12/22 07:28:51;;;;;;;615.58;258.17;;;1.20;99.90;;;;;;5101244;28;20039;-51
2021/12/22 07:31:17;;;;;;;554.03;245.00;;;1.30;99.90;;;;;;5099274;28;20066;-50
2021/12/22 07:33:56;;;;;;;501.70;218.65;;;1.30;99.90;;;;;;5095110;28;20043;-50
2021/12/22 07:36:22;;;;;;;477.17;209.75;;;1.40;99.90;;;;;;5085578;28;20031;-50
2021/12/22 07:39:03;;;;;;;472.20;210.40;;;1.40;99.90;;;;;;5090416;28;20110;-50
2021/12/22 07:41:30;;;;;;;492.52;212.85;;;1.40;99.90;;;;;;5107444;28;20024;-50
2021/12/22 07:43:56;;;;;;;508.10;225.82;;;1.50;99.90;;;;;;5094330;28;20119;-50
2021/12/22 07:46:22;;;;;;;514.88;232.30;;;1.50;99.90;;;;;;5093270;28;20032;-50
2021/12/22 07:48:48;;;;;;;451.20;198.82;;;1.60;99.90;;;;;;5089400;28;20020;-50
2021/12/22 07:51:14;;;;;;;444.80;197.35;;;1.60;99.90;;;;;;5091088;28;20405;-50
2021/12/22 07:53:41;;;;;;;457.73;199.93;;;1.60;99.90;;;;;;5081141;28;20048;-50
2021/12/22 07:56:07;;;;;;;430.85;192.10;;;1.70;99.90;;;;;;5074657;28;20187;-50
2021/12/22 07:58:33;;;;;;;428.20;186.05;;;1.80;99.90;;;;;;5088352;28;20024;-50
2021/12/22 08:00:59;;;;;;;401.95;180.18;;;1.70;99.90;;;;;;5093661;28;20036;-51
2021/12/22 08:03:26;;;;;;;415.58;176.13;;;1.70;99.90;;;;;;5087876;28;20033;-50
2021/12/22 08:05:53;;;;;;;375.48;168.88;;;1.80;99.90;;;;;;5090297;28;20028;-50
2021/12/22 08:08:19;;;;;;;350.00;151.32;;;1.80;99.90;;;;;;5095315;28;20039;-51
2021/12/22 08:10:47;;;;;;;335.63;144.80;;;1.90;99.90;;;;;;5104421;28;20031;-51
2021/12/22 08:13:15;;;;;;;281.48;124.38;;;1.80;99.90;;;;;;5082141;28;20045;-51
2021/12/22 08:15:42;;;;;;;309.25;123.05;;;1.90;99.90;;;;;;5094311;28;20055;-51
2021/12/22 08:18:08;;;;;;;306.70;131.00;;;1.80;99.90;;;;;;5113026;28;20023;-51
2021/12/22 08:20:35;;;;;;;301.30;127.88;;;1.80;99.90;;;;;;5098292;28;20034;-51
2021/12/22 08:23:01;;;;;;;296.65;128.23;;;1.80;99.90;;;;;;5094508;28;20035;-51
2021/12/22 08:25:27;;;;;;;299.30;128.30;;;1.90;99.90;;;;;;5089298;28;20032;-51
2021/12/22 08:27:53;;;;;;;289.13;122.68;;;1.90;99.90;;;;;;5092815;28;20032;-51
2021/12/22 08:30:19;;;;;;;289.73;123.35;;;2.00;99.90;;;;;;5095849;28;20025;-51
2021/12/22 08:32:46;;;;;;;267.13;119.70;;;2.10;99.90;;;;;;5083232;28;20473;-51
2021/12/22 08:35:15;;;;;;;250.98;111.85;;;2.10;99.90;;;;;;5077176;28;20331;-51
2021/12/22 08:40:27;;;;;;;300.58;138.32;;;2.00;99.90;;;;;;5086970;28;20028;-51
2021/12/22 08:42:53;;;;;;;346.73;146.70;;;2.10;99.90;;;;;;5095538;28;20035;-51
2021/12/22 08:45:19;;;;;;;364.80;161.98;;;2.30;99.90;;;;;;5114659;28;20038;-51
2021/12/22 08:47:46;;;;;;;265.70;120.20;;;2.30;99.90;;;;;;5113790;28;20019;-51
2021/12/22 08:50:14;;;;;;;270.88;121.10;;;2.30;99.90;;;;;;5112580;28;20411;-51
2021/12/22 08:52:40;;;;;;;298.30;132.07;;;2.20;99.90;;;;;;5098684;28;20139;-51
2021/12/22 08:55:07;;;;;;;291.80;131.68;;;2.30;99.90;;;;;;5096680;28;20029;-51
2021/12/22 08:57:34;;;;;;;310.35;136.10;;;2.40;99.90;;;;;;5092293;28;20369;-51
2021/12/22 09:00:03;;;;;;;298.48;133.93;;;2.30;99.90;;;;;;5099447;28;20035;-51
2021/12/22 09:02:29;;;;;;;270.48;127.18;;;2.30;99.90;;;;;;5086304;28;20028;-51
2021/12/22 09:04:55;;;;;;;287.30;128.75;;;2.40;99.90;;;;;;5114760;28;20028;-51
2021/12/22 09:07:22;;;;;;;267.98;124.30;;;2.40;99.90;;;;;;5104387;28;20036;-51
2021/12/22 09:09:49;;;;;;;274.83;120.57;;;2.40;99.90;;;;;;5093768;28;20042;-51
2021/12/22 09:12:15;;;;;;;264.42;116.20;;;2.60;99.90;;;;;;5097509;28;20032;-51
2021/12/22 09:14:41;;;;;;;246.93;112.03;;;2.60;99.90;;;;;;5097170;28;20035;-51
2021/12/22 09:17:07;;;;;;;239.02;109.15;;;2.60;99.90;;;;;;5101854;28;20073;-51
2021/12/22 09:19:33;;;;;;;272.55;115.75;;;2.60;99.90;;;;;;5117723;28;20035;-51
2021/12/22 09:21:59;;;;;;;249.48;113.65;;;2.70;99.90;;;;;;5096678;28;20036;-51
2021/12/22 09:24:25;;;;;;;229.60;103.90;;;2.70;99.90;;;;;;5096728;28;20026;-51
2021/12/22 09:26:51;;;;;;;241.65;103.78;;;3.00;99.90;;;;;;5097415;28;20053;-51
2021/12/22 09:29:17;;;;;;;218.32;99.65;;;3.80;99.90;;;;;;5102333;28;20031;-51
2021/12/22 09:31:43;;;;;;;221.75;99.45;;;4.90;99.90;;;;;;5089945;28;20506;-48
2021/12/22 09:34:09;;;;;;;224.82;98.53;;;6.10;96.50;;;;;;5096350;28;20051;-48
2021/12/22 09:36:35;;;;;;;215.65;90.13;;;7.30;94.10;;;;;;5094798;28;20027;-48
2021/12/22 09:39:03;;;;;;;196.10;89.70;;;7.70;86.10;;;;;;5096814;28;20381;-48
2021/12/22 09:41:29;;;;;;;190.38;86.57;;;8.00;83.50;;;;;;5100290;28;20101;-48
2021/12/22 09:43:56;;;;;;;173.23;74.10;;;7.50;88.00;;;;;;5097026;28;20059;-48
2021/12/22 09:46:24;;;;;;;167.60;69.07;;;7.60;75.40;;;;;;5107502;28;20024;-48
2021/12/22 09:48:57;;;;;;;134.45;55.25;;;7.40;75.90;;;;;;5099423;28;20035;-48
2021/12/22 09:53:53;;;;;;;121.53;53.75;;;7.50;72.50;;;;;;5093085;28;20044;-48
2021/12/22 09:56:22;;;;;;;138.10;55.72;;;7.40;81.30;;;;;;5075791;28;20080;-48
2021/12/22 09:58:49;;;;;;;123.10;53.47;;;8.20;74.90;;;;;;5084575;28;20024;-48
2021/12/22 10:01:21;;;;;;;81.78;37.53;;;9.00;65.80;;;;;;5094711;28;20456;-48
2021/12/22 10:03:47;;;;;;;92.78;39.35;;;9.80;57.20;;;;;;5095429;28;20036;-48
2021/12/22 10:06:13;;;;;;;104.35;48.28;;;10.60;54.30;;;;;;5083600;28;20031;-48
2021/12/22 10:08:53;;;;;;;104.57;49.67;;;11.40;52.80;;;;;;5058770;28;20379;-49
2021/12/22 10:11:19;;;;;;;105.80;45.25;;;12.00;48.90;;;;;;5069070;28;20028;-48
2021/12/22 10:13:46;;;;;;;85.15;37.90;;;12.60;48.00;;;;;;5061655;28;20040;-49
2021/12/22 10:16:21;;;;;;;109.82;44.75;;;12.90;43.80;;;;;;5063698;28;20029;-49
2021/12/22 10:18:48;;;;;;;102.00;43.88;;;12.60;44.10;;;;;;5064877;28;20029;-49
2021/12/22 10:21:21;;;;;;;82.72;35.17;;;13.10;42.90;;;;;;5063484;28;20093;-48
2021/12/22 10:23:50;;;;;;;60.53;27.13;;;13.20;40.50;;;;;;5056896;28;20033;-49
2021/12/22 10:26:19;;;;;;;72.20;32.15;;;12.60;39.70;;;;;;5070875;28;20036;-49
2021/12/22 10:28:54;;;;;;;79.20;35.22;;;11.60;40.60;;;;;;5063589;28;20033;-49
2021/12/22 10:31:25;;;;;;;82.35;39.92;;;12.00;43.30;;;;;;5059261;28;20035;-49
2021/12/22 10:33:52;;;;;;;119.38;49.83;;;12.20;41.50;;;;;;5061695;28;20378;-48
2021/12/22 10:36:21;;;;;;;98.53;49.67;;;11.60;42.80;;;;;;5070946;28;20021;-49
2021/12/22 10:38:51;;;;;;;108.47;53.10;;;11.50;44.30;;;;;;5069408;28;20391;-49
2021/12/22 10:41:18;;;;;;;135.37;67.53;;;11.60;45.80;;;;;;5067613;28;20028;-49
2021/12/22 10:43:51;;;;;;;170.65;70.53;;;12.30;46.30;;;;;;5065048;28;20339;-49
2021/12/22 10:46:31;;;;;;;136.75;63.47;;;12.40;45.90;;;;;;5073474;28;20020;-49
2021/12/22 10:49:20;;;;;;;101.63;52.38;;;11.80;45.30;;;;;;5079813;28;20039;-49
2021/12/22 10:52:01;;;;;;;94.63;48.50;;;11.10;44.70;;;;;;5077672;28;20039;-49
2021/12/22 10:54:33;;;;;;;98.60;47.60;;;11.90;44.70;;;;;;5075017;28;20029;-49
2021/12/22 10:57:01;;;;;;;105.43;47.05;;;11.80;43.50;;;;;;5075248;28;20040;-49
2021/12/22 10:59:27;;;;;;;97.82;46.35;;;10.70;44.00;;;;;;5074579;28;20028;-49
2021/12/22 11:01:54;;;;;;;92.68;44.90;;;10.50;45.20;;;;;;5068201;28;20031;-49
2021/12/22 11:04:25;;;;;;;120.47;46.28;;;10.30;46.00;;;;;;5055865;28;20031;-49
2021/12/22 11:06:54;;;;;;;92.85;41.88;;;10.10;47.30;;;;;;5056294;28;20036;-49
2021/12/22 11:09:22;;;;;;;97.07;44.75;;;9.50;46.90;;;;;;5055839;28;20494;-49
2021/12/22 11:11:52;;;;;;;111.45;45.55;;;9.30;47.40;;;;;;5058758;28;20060;-49
2021/12/22 11:14:30;;;;;;;117.35;49.72;;;9.10;48.60;;;;;;5068570;28;20044;-49
2021/12/22 11:17:00;;;;;;;100.63;45.42;;;8.50;50.00;;;;;;5066532;28;20032;-49
2021/12/22 11:19:37;;;;;;;106.13;42.85;;;8.50;51.20;;;;;;5071551;28;20144;-49
2021/12/22 11:22:08;;;;;;;82.95;36.47;;;8.50;51.20;;;;;;5073393;28;20032;-49
2021/12/22 11:24:37;;;;;;;102.43;45.22;;;8.40;50.80;;;;;;5064570;28;20485;-48
2021/12/22 11:27:05;;;;;;;121.82;47.17;;;7.90;51.70;;;;;;5055898;28;20117;-51
2021/12/22 11:29:33;;;;;;;98.57;43.38;;;8.00;52.30;;;;;;5055736;28;20089;-49
2021/12/22 11:32:03;;;;;;;109.50;55.95;;;7.60;53.70;;;;;;5061194;28;20029;-49
2021/12/22 11:34:30;;;;;;;119.07;54.65;;;7.30;53.80;;;;;;5069598;28;20074;-49
2021/12/22 11:36:57;;;;;;;71.22;36.10;;;7.40;55.00;;;;;;5062346;28;20056;-49
2021/12/22 11:39:23;;;;;;;108.75;47.65;;;7.10;54.20;;;;;;5071677;28;20024;-49
2021/12/22 11:41:57;;;;;;;110.63;41.05;;;7.20;56.10;;;;;;5063621;28;20115;-51
2021/12/22 11:44:27;;;;;;;116.43;47.17;;;7.30;56.30;;;;;;5071199;28;20024;-51
2021/12/22 11:46:56;;;;;;;100.15;42.67;;;7.10;55.80;;;;;;5071327;28;20068;-51
2021/12/22 11:49:23;;;;;;;115.93;42.63;;;7.20;58.40;;;;;;5069747;28;20029;-51
2021/12/22 11:51:50;;;;;;;106.65;41.50;;;7.20;57.00;;;;;;5074481;28;20036;-51
2021/12/22 11:54:16;;;;;;;76.95;36.58;;;6.80;57.60;;;;;;5084666;28;20032;-50
2021/12/22 11:56:48;;;;;;;80.70;38.63;;;6.80;58.30;;;;;;5092710;28;20034;-50
2021/12/22 11:59:37;;;;;;;93.35;38.53;;;6.60;58.40;;;;;;5087569;28;20508;-50
2021/12/22 12:02:33;;;;;;;89.35;34.80;;;6.70;57.40;;;;;;5077071;28;20382;-50
2021/12/22 12:05:21;;;;;;;85.43;36.05;;;6.50;58.00;;;;;;5092588;28;20577;-50
2021/12/22 12:07:56;;;;;;;92.20;36.50;;;6.20;56.10;;;;;;5101134;28;20108;-50
2021/12/22 12:10:40;;;;;;;91.60;37.30;;;6.10;58.30;;;;;;5052267;28;20024;-50
2021/12/22 12:13:46;;;;;;;99.63;37.72;;;6.20;58.70;;;;;;5105793;28;20481;-50
2021/12/22 12:21:56;;;;;;;87.78;38.28;;;6.10;64.20;;;;;;5081728;28;20308;-50
2021/12/22 12:24:32;;;;;;;99.95;39.95;;;6.20;62.50;;;;;;5080263;28;20033;-50
2021/12/22 12:26:59;;;;;;;89.85;38.22;;;6.10;63.80;;;;;;5052201;28;20035;-50
2021/12/22 12:29:53;;;;;;;83.65;36.53;;;6.00;64.10;;;;;;5095877;28;20024;-50
2021/12/22 12:32:41;;;;;;;94.43;39.30;;;6.10;67.90;;;;;;5079615;28;20106;-50
2021/12/22 12:35:23;;;;;;;111.47;40.05;;;5.90;76.10;;;;;;5092520;28;20449;-50
2021/12/22 12:38:16;;;;;;;85.65;39.35;;;5.80;83.30;;;;;;5092988;28;20063;-50
2021/12/22 12:43:52;;;;;;;105.90;42.38;;;5.70;86.10;;;;;;5092444;28;20532;-50
2021/12/22 12:46:23;;;;;;;125.25;42.50;;;5.60;88.10;;;;;;5094642;28;20119;-50
2021/12/22 12:49:04;;;;;;;82.47;37.70;;;5.50;86.60;;;;;;5092525;28;20024;-49
2021/12/22 12:51:33;;;;;;;107.70;41.00;;;5.40;86.00;;;;;;5089500;28;20016;-49
2021/12/22 12:54:02;;;;;;;119.13;46.95;;;5.30;89.50;;;;;;5076127;28;20391;-50
2021/12/22 12:56:33;;;;;;;105.50;41.00;;;5.40;90.50;;;;;;5047699;28;1255561;-49